Gering, Nebraska
Current Conditions -  °F | °C
As of 8:53 PM on Thursday 18 Dec 2014 (Local Time) from KBFF Reporting Station
Clear Clear  
Wind Chill: 12°   Ceiling: Unl
Heat Index: 12°   Visibility: 7mi
Dew Point:   Wind: 3mph
Humidity: 84%   Direction: 30°NNE
Pressure: 30.08"   Gusts: NA
Location:  41.82°N, 103.66°W
Report Text: KBFF 190353Z AUTO 03003KT 7SM CLR M11/M13 A3008 RMK AO2 SLP254 I1000 T11111133
Loading
Personal Weather Stations






























Interactive Weather Map New forecast layout! Learn more

10-Day Weather Forecast

Advertisements
Track Severe Weather on mobile